Terminal Aerodrome Forecast
Issued by NWS

Home | Current Version | Previous Version | Text Only | Print | Product List | Glossary On
Versions: 1 2 3 4 5 6 7 8 9 10 11 12 13 14 15
402
FTUS45 KTFX 271745
TAFGTF
TAF
KGTF 271745Z 2718/2818 25008KT P6SM SCT080 BKN150
     FM272000 28011G20KT P6SM SCT050 BKN090
     FM280100 27009KT P6SM SCT050 BKN100
     FM280600 22010KT P6SM FEW050 BKN150=

USA.gov is the U.S. government's official web portal to all federal, state and local government web resources and services.